sensor_id;sensor_type;location;lat;lon;timestamp;temperature;humidity
2839;DHT22;1427;48.510;9.060;2023-05-07T00:01:34;14.70;99.90
2839;DHT22;1427;48.510;9.060;2023-05-07T00:04:02;14.70;99.90
2839;DHT22;1427;48.510;9.060;2023-05-07T00:06:32;14.70;99.90
2839;DHT22;1427;48.510;9.060;2023-05-07T00:09:00;14.60;99.90
2839;DHT22;1427;48.510;9.060;2023-05-07T00:11:28;14.50;99.90
2839;DHT22;1427;48.510;9.060;2023-05-07T00:13:57;14.40;99.90
2839;DHT22;1427;48.510;9.060;2023-05-07T00:16:25;14.40;99.90
2839;DHT22;1427;48.510;9.060;2023-05-07T00:18:53;14.40;99.90
2839;DHT22;1427;48.510;9.060;2023-05-07T00:21:21;14.40;99.90
2839;DHT22;1427;48.510;9.060;2023-05-07T00:23:53;14.40;99.90
2839;DHT22;1427;48.510;9.060;2023-05-07T00:26:21;14.40;99.90
2839;DHT22;1427;48.510;9.060;2023-05-07T00:28:49;14.50;99.90
2839;DHT22;1427;48.510;9.060;2023-05-07T00:31:18;14.50;99.90
2839;DHT22;1427;48.510;9.060;2023-05-07T00:33:46;14.40;99.90
2839;DHT22;1427;48.510;9.060;2023-05-07T00:36:14;14.50;99.90
2839;DHT22;1427;48.510;9.060;2023-05-07T00:38:42;14.30;99.90
2839;DHT22;1427;48.510;9.060;2023-05-07T00:41:10;14.30;99.90
2839;DHT22;1427;48.510;9.060;2023-05-07T00:43:38;14.30;99.90
2839;DHT22;1427;48.510;9.060;2023-05-07T00:46:06;14.20;99.90
2839;DHT22;1427;48.510;9.060;2023-05-07T00:48:36;14.20;99.90
2839;DHT22;1427;48.510;9.060;2023-05-07T00:51:04;14.20;99.90
2839;DHT22;1427;48.510;9.060;2023-05-07T00:53:32;14.10;99.90
2839;DHT22;1427;48.510;9.060;2023-05-07T00:56:00;14.20;99.90
2839;DHT22;1427;48.510;9.060;2023-05-07T00:58:29;14.00;99.90
2839;DHT22;1427;48.510;9.060;2023-05-07T01:00:58;14.20;99.90
2839;DHT22;1427;48.510;9.060;2023-05-07T01:03:26;13.90;99.90
2839;DHT22;1427;48.510;9.060;2023-05-07T01:05:57;13.80;99.90
2839;DHT22;1427;48.510;9.060;2023-05-07T01:08:27;13.70;99.90
2839;DHT22;1427;48.510;9.060;2023-05-07T01:10:56;13.80;99.90
2839;DHT22;1427;48.510;9.060;2023-05-07T01:13:25;13.80;99.90
2839;DHT22;1427;48.510;9.060;2023-05-07T01:15:53;13.90;99.90
2839;DHT22;1427;48.510;9.060;2023-05-07T01:18:21;13.80;99.90
2839;DHT22;1427;48.510;9.060;2023-05-07T01:20:49;13.80;99.90
2839;DHT22;1427;48.510;9.060;2023-05-07T01:23:19;13.80;99.90
2839;DHT22;1427;48.510;9.060;2023-05-07T01:25:51;13.80;99.90
2839;DHT22;1427;48.510;9.060;2023-05-07T01:28:19;13.80;99.90
2839;DHT22;1427;48.510;9.060;2023-05-07T01:30:51;13.80;99.90
2839;DHT22;1427;48.510;9.060;2023-05-07T01:33:21;13.70;99.90
2839;DHT22;1427;48.510;9.060;2023-05-07T01:35:52;13.70;99.90
2839;DHT22;1427;48.510;9.060;2023-05-07T01:38:22;13.70;99.90
2839;DHT22;1427;48.510;9.060;2023-05-07T01:40:51;13.70;99.90
2839;DHT22;1427;48.510;9.060;2023-05-07T01:43:19;13.60;99.90
2839;DHT22;1427;48.510;9.060;2023-05-07T01:45:48;13.60;99.90
2839;DHT22;1427;48.510;9.060;2023-05-07T01:48:17;13.60;99.90
2839;DHT22;1427;48.510;9.060;2023-05-07T01:50:46;13.60;99.90
2839;DHT22;1427;48.510;9.060;2023-05-07T01:53:14;13.60;99.90
2839;DHT22;1427;48.510;9.060;2023-05-07T01:55:44;13.60;99.90
2839;DHT22;1427;48.510;9.060;2023-05-07T01:58:12;13.60;99.90
2839;DHT22;1427;48.510;9.060;2023-05-07T02:00:40;13.50;99.90
2839;DHT22;1427;48.510;9.060;2023-05-07T02:03:08;13.50;99.90
2839;DHT22;1427;48.510;9.060;2023-05-07T02:05:37;13.60;99.90
2839;DHT22;1427;48.510;9.060;2023-05-07T02:08:04;13.70;99.90
2839;DHT22;1427;48.510;9.060;2023-05-07T02:10:32;13.60;99.90
2839;DHT22;1427;48.510;9.060;2023-05-07T02:13:04;13.60;99.90
2839;DHT22;1427;48.510;9.060;2023-05-07T02:15:32;13.60;99.90
2839;DHT22;1427;48.510;9.060;2023-05-07T02:18:04;13.60;99.90
2839;DHT22;1427;48.510;9.060;2023-05-07T02:20:33;13.50;99.90
2839;DHT22;1427;48.510;9.060;2023-05-07T02:23:01;13.60;99.90
2839;DHT22;1427;48.510;9.060;2023-05-07T02:25:29;13.50;99.90
2839;DHT22;1427;48.510;9.060;2023-05-07T02:27:57;13.40;99.90
2839;DHT22;1427;48.510;9.060;2023-05-07T02:30:26;13.30;99.90
2839;DHT22;1427;48.510;9.060;2023-05-07T02:32:54;13.30;99.90
2839;DHT22;1427;48.510;9.060;2023-05-07T02:35:24;13.20;99.90
2839;DHT22;1427;48.510;9.060;2023-05-07T02:37:52;13.10;99.90
2839;DHT22;1427;48.510;9.060;2023-05-07T02:40:20;13.10;99.90
2839;DHT22;1427;48.510;9.060;2023-05-07T02:42:48;13.10;99.90
2839;DHT22;1427;48.510;9.060;2023-05-07T02:45:16;13.10;99.90
2839;DHT22;1427;48.510;9.060;2023-05-07T02:47:46;13.00;99.90
2839;DHT22;1427;48.510;9.060;2023-05-07T02:50:14;13.00;99.90
2839;DHT22;1427;48.510;9.060;2023-05-07T02:52:42;12.90;99.90
2839;DHT22;1427;48.510;9.060;2023-05-07T02:55:10;12.80;99.90
2839;DHT22;1427;48.510;9.060;2023-05-07T02:57:38;12.90;99.90
2839;DHT22;1427;48.510;9.060;2023-05-07T03:00:13;12.80;99.90
2839;DHT22;1427;48.510;9.060;2023-05-07T03:02:42;12.80;99.90
2839;DHT22;1427;48.510;9.060;2023-05-07T03:05:11;12.60;99.90
2839;DHT22;1427;48.510;9.060;2023-05-07T03:07:40;12.60;99.90
2839;DHT22;1427;48.510;9.060;2023-05-07T03:10:11;12.70;99.90
2839;DHT22;1427;48.510;9.060;2023-05-07T03:12:39;12.50;99.90
2839;DHT22;1427;48.510;9.060;2023-05-07T03:15:09;12.50;99.90
2839;DHT22;1427;48.510;9.060;2023-05-07T03:17:37;12.50;99.90
2839;DHT22;1427;48.510;9.060;2023-05-07T03:20:07;12.50;99.90
2839;DHT22;1427;48.510;9.060;2023-05-07T03:22:38;12.50;99.90
2839;DHT22;1427;48.510;9.060;2023-05-07T03:25:08;12.40;99.90
2839;DHT22;1427;48.510;9.060;2023-05-07T03:27:36;12.40;99.90
2839;DHT22;1427;48.510;9.060;2023-05-07T03:30:05;12.40;99.90
2839;DHT22;1427;48.510;9.060;2023-05-07T03:32:34;12.30;99.90
2839;DHT22;1427;48.510;9.060;2023-05-07T03:35:03;12.40;99.90
2839;DHT22;1427;48.510;9.060;2023-05-07T03:37:31;12.40;99.90
2839;DHT22;1427;48.510;9.060;2023-05-07T03:40:01;12.40;99.90
2839;DHT22;1427;48.510;9.060;2023-05-07T03:42:30;12.30;99.90
2839;DHT22;1427;48.510;9.060;2023-05-07T03:44:58;12.20;99.90
2839;DHT22;1427;48.510;9.060;2023-05-07T03:47:26;12.20;99.90
2839;DHT22;1427;48.510;9.060;2023-05-07T03:49:55;12.10;99.90
2839;DHT22;1427;48.510;9.060;2023-05-07T03:52:23;12.10;99.90
2839;DHT22;1427;48.510;9.060;2023-05-07T03:54:52;12.10;99.90
2839;DHT22;1427;48.510;9.060;2023-05-07T03:57:22;12.10;99.90
2839;DHT22;1427;48.510;9.060;2023-05-07T03:59:50;12.10;99.90
2839;DHT22;1427;48.510;9.060;2023-05-07T04:02:18;12.20;99.90
2839;DHT22;1427;48.510;9.060;2023-05-07T04:04:48;12.20;99.90
2839;DHT22;1427;48.510;9.060;2023-05-07T04:07:16;12.10;99.90
2839;DHT22;1427;48.510;9.060;2023-05-07T04:09:44;12.10;99.90
2839;DHT22;1427;48.510;9.060;2023-05-07T04:12:12;12.00;99.90
2839;DHT22;1427;48.510;9.060;2023-05-07T04:14:41;12.10;99.90
2839;DHT22;1427;48.510;9.060;2023-05-07T04:17:09;12.10;99.90
2839;DHT22;1427;48.510;9.060;2023-05-07T04:19:37;12.00;99.90
2839;DHT22;1427;48.510;9.060;2023-05-07T04:22:05;12.10;99.90
2839;DHT22;1427;48.510;9.060;2023-05-07T04:24:33;12.10;99.90
2839;DHT22;1427;48.510;9.060;2023-05-07T04:27:01;12.00;99.90
2839;DHT22;1427;48.510;9.060;2023-05-07T04:29:30;12.10;99.90
2839;DHT22;1427;48.510;9.060;2023-05-07T04:31:59;12.10;99.90
2839;DHT22;1427;48.510;9.060;2023-05-07T04:34:28;12.00;99.90
2839;DHT22;1427;48.510;9.060;2023-05-07T04:36:58;12.10;99.90
2839;DHT22;1427;48.510;9.060;2023-05-07T04:39:26;12.10;99.90
2839;DHT22;1427;48.510;9.060;2023-05-07T04:41:54;12.00;99.90
2839;DHT22;1427;48.510;9.060;2023-05-07T04:44:22;12.00;99.90
2839;DHT22;1427;48.510;9.060;2023-05-07T04:46:50;12.10;99.90
2839;DHT22;1427;48.510;9.060;2023-05-07T04:49:19;12.10;99.90
2839;DHT22;1427;48.510;9.060;2023-05-07T04:51:47;12.30;99.90
2839;DHT22;1427;48.510;9.060;2023-05-07T04:54:15;12.50;99.90
2839;DHT22;1427;48.510;9.060;2023-05-07T04:56:43;12.50;99.90
2839;DHT22;1427;48.510;9.060;2023-05-07T04:59:11;12.60;99.90
2839;DHT22;1427;48.510;9.060;2023-05-07T05:01:39;12.60;99.90
2839;DHT22;1427;48.510;9.060;2023-05-07T05:04:07;12.70;99.90
2839;DHT22;1427;48.510;9.060;2023-05-07T05:06:37;12.60;99.90
2839;DHT22;1427;48.510;9.060;2023-05-07T05:09:05;12.70;99.90
2839;DHT22;1427;48.510;9.060;2023-05-07T05:11:33;12.80;99.90
2839;DHT22;1427;48.510;9.060;2023-05-07T05:14:00;12.90;99.90
2839;DHT22;1427;48.510;9.060;2023-05-07T05:16:28;13.10;99.90
2839;DHT22;1427;48.510;9.060;2023-05-07T05:18:56;13.30;99.90
2839;DHT22;1427;48.510;9.060;2023-05-07T05:21:24;13.50;99.90
2839;DHT22;1427;48.510;9.060;2023-05-07T05:23:54;13.70;99.90
2839;DHT22;1427;48.510;9.060;2023-05-07T05:26:22;14.00;99.90
2839;DHT22;1427;48.510;9.060;2023-05-07T05:28:50;14.40;99.90
2839;DHT22;1427;48.510;9.060;2023-05-07T05:31:18;14.40;99.90
2839;DHT22;1427;48.510;9.060;2023-05-07T05:33:46;14.60;99.90
2839;DHT22;1427;48.510;9.060;2023-05-07T05:36:14;14.90;99.90
2839;DHT22;1427;48.510;9.060;2023-05-07T05:38:42;15.30;99.90
2839;DHT22;1427;48.510;9.060;2023-05-07T05:41:11;15.40;99.90
2839;DHT22;1427;48.510;9.060;2023-05-07T05:43:39;15.40;99.90
2839;DHT22;1427;48.510;9.060;2023-05-07T05:46:07;15.60;99.90
2839;DHT22;1427;48.510;9.060;2023-05-07T05:48:38;16.00;99.90
2839;DHT22;1427;48.510;9.060;2023-05-07T05:51:06;16.00;99.90
2839;DHT22;1427;48.510;9.060;2023-05-07T05:53:34;15.90;99.90
2839;DHT22;1427;48.510;9.060;2023-05-07T05:56:02;15.80;99.90
2839;DHT22;1427;48.510;9.060;2023-05-07T05:58:32;15.80;99.90
2839;DHT22;1427;48.510;9.060;2023-05-07T06:01:00;15.80;99.90
2839;DHT22;1427;48.510;9.060;2023-05-07T06:03:29;15.80;99.90
2839;DHT22;1427;48.510;9.060;2023-05-07T06:05:57;15.70;99.90
2839;DHT22;1427;48.510;9.060;2023-05-07T06:08:29;15.60;99.90
2839;DHT22;1427;48.510;9.060;2023-05-07T06:10:58;15.60;99.90
2839;DHT22;1427;48.510;9.060;2023-05-07T06:13:26;15.50;99.90
2839;DHT22;1427;48.510;9.060;2023-05-07T06:15:56;15.20;99.90
2839;DHT22;1427;48.510;9.060;2023-05-07T06:18:24;15.10;99.90
2839;DHT22;1427;48.510;9.060;2023-05-07T06:20:53;15.10;99.90
2839;DHT22;1427;48.510;9.060;2023-05-07T06:23:21;15.40;99.90
2839;DHT22;1427;48.510;9.060;2023-05-07T06:25:49;15.60;99.90
2839;DHT22;1427;48.510;9.060;2023-05-07T06:28:18;15.70;99.90
2839;DHT22;1427;48.510;9.060;2023-05-07T06:30:46;15.90;99.90
2839;DHT22;1427;48.510;9.060;2023-05-07T06:33:16;16.00;99.90
2839;DHT22;1427;48.510;9.060;2023-05-07T06:35:46;16.20;99.90
2839;DHT22;1427;48.510;9.060;2023-05-07T06:38:14;16.10;99.90
2839;DHT22;1427;48.510;9.060;2023-05-07T06:40:42;16.00;99.90
2839;DHT22;1427;48.510;9.060;2023-05-07T06:43:10;15.90;99.90
2839;DHT22;1427;48.510;9.060;2023-05-07T06:45:38;16.00;99.90
2839;DHT22;1427;48.510;9.060;2023-05-07T06:48:06;16.10;99.90
2839;DHT22;1427;48.510;9.060;2023-05-07T06:50:35;16.20;99.90
2839;DHT22;1427;48.510;9.060;2023-05-07T06:53:03;16.20;99.90
2839;DHT22;1427;48.510;9.060;2023-05-07T06:55:31;16.40;99.90
2839;DHT22;1427;48.510;9.060;2023-05-07T06:57:59;16.40;99.90
2839;DHT22;1427;48.510;9.060;2023-05-07T07:00:27;16.60;99.90
2839;DHT22;1427;48.510;9.060;2023-05-07T07:02:56;16.70;99.90
2839;DHT22;1427;48.510;9.060;2023-05-07T07:05:24;16.90;99.90
2839;DHT22;1427;48.510;9.060;2023-05-07T07:07:53;17.10;99.90
2839;DHT22;1427;48.510;9.060;2023-05-07T07:10:22;17.40;99.90
2839;DHT22;1427;48.510;9.060;2023-05-07T07:12:50;17.60;99.90
2839;DHT22;1427;48.510;9.060;2023-05-07T07:15:19;17.80;99.90
2839;DHT22;1427;48.510;9.060;2023-05-07T07:17:48;17.90;99.90
2839;DHT22;1427;48.510;9.060;2023-05-07T07:20:16;17.90;99.90
2839;DHT22;1427;48.510;9.060;2023-05-07T07:22:44;18.00;99.90
2839;DHT22;1427;48.510;9.060;2023-05-07T07:25:14;18.30;99.90
2839;DHT22;1427;48.510;9.060;2023-05-07T07:27:42;18.60;99.90
2839;DHT22;1427;48.510;9.060;2023-05-07T07:30:10;19.00;99.90
2839;DHT22;1427;48.510;9.060;2023-05-07T07:32:39;19.10;99.90
2839;DHT22;1427;48.510;9.060;2023-05-07T07:35:08;19.20;99.90
2839;DHT22;1427;48.510;9.060;2023-05-07T07:37:36;19.20;99.90
2839;DHT22;1427;48.510;9.060;2023-05-07T07:40:05;19.20;99.90
2839;DHT22;1427;48.510;9.060;2023-05-07T07:42:35;19.20;99.90
2839;DHT22;1427;48.510;9.060;2023-05-07T07:45:04;19.20;99.90
2839;DHT22;1427;48.510;9.060;2023-05-07T07:47:32;19.30;99.90
2839;DHT22;1427;48.510;9.060;2023-05-07T07:50:00;19.40;99.90
2839;DHT22;1427;48.510;9.060;2023-05-07T07:52:28;19.40;99.90
2839;DHT22;1427;48.510;9.060;2023-05-07T07:54:56;19.30;99.90
2839;DHT22;1427;48.510;9.060;2023-05-07T07:57:24;19.00;99.90
2839;DHT22;1427;48.510;9.060;2023-05-07T07:59:54;18.80;99.90
2839;DHT22;1427;48.510;9.060;2023-05-07T08:02:22;18.60;99.90
2839;DHT22;1427;48.510;9.060;2023-05-07T08:04:50;18.50;99.90
2839;DHT22;1427;48.510;9.060;2023-05-07T08:07:18;18.50;99.90
2839;DHT22;1427;48.510;9.060;2023-05-07T08:09:47;18.40;99.90
2839;DHT22;1427;48.510;9.060;2023-05-07T08:12:15;18.50;99.90
2839;DHT22;1427;48.510;9.060;2023-05-07T08:14:43;18.50;99.90
2839;DHT22;1427;48.510;9.060;2023-05-07T08:17:12;18.50;99.90
2839;DHT22;1427;48.510;9.060;2023-05-07T08:19:42;18.50;99.90
2839;DHT22;1427;48.510;9.060;2023-05-07T08:22:10;18.70;99.90
2839;DHT22;1427;48.510;9.060;2023-05-07T08:24:38;19.00;99.90
2839;DHT22;1427;48.510;9.060;2023-05-07T08:27:06;19.20;99.90
2839;DHT22;1427;48.510;9.060;2023-05-07T08:29:34;19.20;99.90
2839;DHT22;1427;48.510;9.060;2023-05-07T08:32:02;19.20;99.90
2839;DHT22;1427;48.510;9.060;2023-05-07T08:34:32;19.10;99.90
2839;DHT22;1427;48.510;9.060;2023-05-07T08:37:00;19.10;99.90
2839;DHT22;1427;48.510;9.060;2023-05-07T08:39:29;19.20;99.90
2839;DHT22;1427;48.510;9.060;2023-05-07T08:42:00;19.40;99.90
2839;DHT22;1427;48.510;9.060;2023-05-07T08:44:33;19.80;99.90
2839;DHT22;1427;48.510;9.060;2023-05-07T08:47:01;20.10;99.90
2839;DHT22;1427;48.510;9.060;2023-05-07T08:49:31;20.20;99.90
2839;DHT22;1427;48.510;9.060;2023-05-07T08:52:01;20.10;99.90
2839;DHT22;1427;48.510;9.060;2023-05-07T08:54:31;19.90;99.90
2839;DHT22;1427;48.510;9.060;2023-05-07T08:56:59;19.90;99.90
2839;DHT22;1427;48.510;9.060;2023-05-07T08:59:27;20.20;99.90
2839;DHT22;1427;48.510;9.060;2023-05-07T09:01:55;20.60;99.90
2839;DHT22;1427;48.510;9.060;2023-05-07T09:04:23;21.00;99.90
2839;DHT22;1427;48.510;9.060;2023-05-07T09:06:53;21.20;99.90
2839;DHT22;1427;48.510;9.060;2023-05-07T09:09:22;21.40;99.90
2839;DHT22;1427;48.510;9.060;2023-05-07T09:11:56;21.70;99.90
2839;DHT22;1427;48.510;9.060;2023-05-07T09:14:25;22.00;99.90
2839;DHT22;1427;48.510;9.060;2023-05-07T09:16:53;22.20;99.90
2839;DHT22;1427;48.510;9.060;2023-05-07T09:19:23;22.50;99.90
2839;DHT22;1427;48.510;9.060;2023-05-07T09:21:59;22.60;99.90
2839;DHT22;1427;48.510;9.060;2023-05-07T09:24:27;22.60;99.90
2839;DHT22;1427;48.510;9.060;2023-05-07T09:27:00;22.80;99.90
2839;DHT22;1427;48.510;9.060;2023-05-07T09:29:29;23.00;99.90
2839;DHT22;1427;48.510;9.060;2023-05-07T09:32:02;23.20;99.90
2839;DHT22;1427;48.510;9.060;2023-05-07T09:34:31;23.50;99.90
2839;DHT22;1427;48.510;9.060;2023-05-07T09:37:01;23.70;99.90
2839;DHT22;1427;48.510;9.060;2023-05-07T09:39:39;23.70;99.90
2839;DHT22;1427;48.510;9.060;2023-05-07T09:42:07;23.70;99.90
2839;DHT22;1427;48.510;9.060;2023-05-07T09:44:35;23.70;99.90
2839;DHT22;1427;48.510;9.060;2023-05-07T09:47:05;23.50;99.90
2839;DHT22;1427;48.510;9.060;2023-05-07T09:49:35;23.80;99.90
2839;DHT22;1427;48.510;9.060;2023-05-07T09:52:06;24.00;99.90
2839;DHT22;1427;48.510;9.060;2023-05-07T09:54:36;24.30;99.90
2839;DHT22;1427;48.510;9.060;2023-05-07T09:57:05;24.40;99.90
2839;DHT22;1427;48.510;9.060;2023-05-07T09:59:34;24.60;99.90
2839;DHT22;1427;48.510;9.060;2023-05-07T10:02:05;24.70;99.90
2839;DHT22;1427;48.510;9.060;2023-05-07T10:04:34;25.00;99.90
2839;DHT22;1427;48.510;9.060;2023-05-07T10:07:04;25.00;98.70
2839;DHT22;1427;48.510;9.060;2023-05-07T10:09:33;24.70;98.80
2839;DHT22;1427;48.510;9.060;2023-05-07T10:12:05;24.80;99.90
2839;DHT22;1427;48.510;9.060;2023-05-07T10:14:34;25.00;99.50
2839;DHT22;1427;48.510;9.060;2023-05-07T10:17:02;25.20;99.50
2839;DHT22;1427;48.510;9.060;2023-05-07T10:19:31;25.60;98.80
2839;DHT22;1427;48.510;9.060;2023-05-07T10:22:04;25.90;99.90
2839;DHT22;1427;48.510;9.060;2023-05-07T10:24:33;26.20;98.80
2839;DHT22;1427;48.510;9.060;2023-05-07T10:27:06;26.30;98.00
2839;DHT22;1427;48.510;9.060;2023-05-07T10:29:45;26.10;96.70
2839;DHT22;1427;48.510;9.060;2023-05-07T10:32:33;26.20;98.40
2839;DHT22;1427;48.510;9.060;2023-05-07T10:35:06;26.50;98.60
2839;DHT22;1427;48.510;9.060;2023-05-07T10:37:38;26.50;96.20
2839;DHT22;1427;48.510;9.060;2023-05-07T10:40:09;26.30;96.40
2839;DHT22;1427;48.510;9.060;2023-05-07T10:42:37;26.40;96.20
2839;DHT22;1427;48.510;9.060;2023-05-07T10:45:12;26.30;96.20
2839;DHT22;1427;48.510;9.060;2023-05-07T10:50:45;25.60;96.80
2839;DHT22;1427;48.510;9.060;2023-05-07T10:53:24;25.90;97.10
2839;DHT22;1427;48.510;9.060;2023-05-07T10:56:24;26.30;97.80
2839;DHT22;1427;48.510;9.060;2023-05-07T10:58:53;26.70;96.50
2839;DHT22;1427;48.510;9.060;2023-05-07T11:01:53;27.10;96.20
2839;DHT22;1427;48.510;9.060;2023-05-07T11:04:21;27.20;94.60
2839;DHT22;1427;48.510;9.060;2023-05-07T11:07:21;27.20;94.80
2839;DHT22;1427;48.510;9.060;2023-05-07T11:10:04;27.40;93.80
2839;DHT22;1427;48.510;9.060;2023-05-07T11:12:54;27.10;93.40
2839;DHT22;1427;48.510;9.060;2023-05-07T11:15:43;26.80;94.00
2839;DHT22;1427;48.510;9.060;2023-05-07T11:18:13;26.90;93.70
2839;DHT22;1427;48.510;9.060;2023-05-07T11:20:49;26.90;94.30
2839;DHT22;1427;48.510;9.060;2023-05-07T11:23:55;26.90;92.60
2839;DHT22;1427;48.510;9.060;2023-05-07T11:26:30;25.60;93.40
2839;DHT22;1427;48.510;9.060;2023-05-07T11:28:59;24.80;93.00
2839;DHT22;1427;48.510;9.060;2023-05-07T11:31:28;24.80;93.90
2839;DHT22;1427;48.510;9.060;2023-05-07T11:33:57;25.00;94.50
2839;DHT22;1427;48.510;9.060;2023-05-07T11:36:31;25.00;94.60
2839;DHT22;1427;48.510;9.060;2023-05-07T11:38:59;24.80;94.50
2839;DHT22;1427;48.510;9.060;2023-05-07T11:41:38;24.50;95.00
2839;DHT22;1427;48.510;9.060;2023-05-07T11:44:07;24.00;95.20
2839;DHT22;1427;48.510;9.060;2023-05-07T11:46:36;23.70;95.50
2839;DHT22;1427;48.510;9.060;2023-05-07T11:49:04;23.70;96.10
2839;DHT22;1427;48.510;9.060;2023-05-07T11:51:33;23.30;95.80
2839;DHT22;1427;48.510;9.060;2023-05-07T11:54:04;23.30;96.40
2839;DHT22;1427;48.510;9.060;2023-05-07T11:56:37;23.10;96.70
2839;DHT22;1427;48.510;9.060;2023-05-07T11:59:05;23.00;97.00
2839;DHT22;1427;48.510;9.060;2023-05-07T12:01:35;22.80;97.10
2839;DHT22;1427;48.510;9.060;2023-05-07T12:04:04;23.00;97.10
2839;DHT22;1427;48.510;9.060;2023-05-07T12:06:36;23.00;97.20
2839;DHT22;1427;48.510;9.060;2023-05-07T12:09:05;23.30;97.00
2839;DHT22;1427;48.510;9.060;2023-05-07T12:11:39;23.10;97.00
2839;DHT22;1427;48.510;9.060;2023-05-07T12:14:07;23.00;97.10
2839;DHT22;1427;48.510;9.060;2023-05-07T12:16:38;23.10;97.80
2839;DHT22;1427;48.510;9.060;2023-05-07T12:19:07;22.80;97.90
2839;DHT22;1427;48.510;9.060;2023-05-07T12:21:41;22.80;98.20
2839;DHT22;1427;48.510;9.060;2023-05-07T12:24:09;22.70;98.20
2839;DHT22;1427;48.510;9.060;2023-05-07T12:26:39;22.50;99.90
2839;DHT22;1427;48.510;9.060;2023-05-07T12:29:07;22.50;99.90
2839;DHT22;1427;48.510;9.060;2023-05-07T12:31:35;22.10;99.90
2839;DHT22;1427;48.510;9.060;2023-05-07T12:34:04;22.00;99.90
2839;DHT22;1427;48.510;9.060;2023-05-07T12:36:37;21.70;99.90
2839;DHT22;1427;48.510;9.060;2023-05-07T12:39:05;21.60;99.90
2839;DHT22;1427;48.510;9.060;2023-05-07T12:41:36;21.50;99.90
2839;DHT22;1427;48.510;9.060;2023-05-07T12:44:22;21.40;99.90
2839;DHT22;1427;48.510;9.060;2023-05-07T12:46:50;21.60;99.90
2839;DHT22;1427;48.510;9.060;2023-05-07T12:49:19;21.60;99.90
2839;DHT22;1427;48.510;9.060;2023-05-07T12:51:50;21.60;99.90
2839;DHT22;1427;48.510;9.060;2023-05-07T12:54:28;21.20;99.90
2839;DHT22;1427;48.510;9.060;2023-05-07T12:57:03;20.90;99.90
2839;DHT22;1427;48.510;9.060;2023-05-07T12:59:35;20.40;99.90
2839;DHT22;1427;48.510;9.060;2023-05-07T13:02:04;19.70;99.90
2839;DHT22;1427;48.510;9.060;2023-05-07T13:04:32;19.50;99.90
2839;DHT22;1427;48.510;9.060;2023-05-07T13:07:01;19.30;99.90
2839;DHT22;1427;48.510;9.060;2023-05-07T13:09:29;18.90;99.90
2839;DHT22;1427;48.510;9.060;2023-05-07T13:11:58;18.60;99.90
2839;DHT22;1427;48.510;9.060;2023-05-07T13:14:28;18.40;99.90
2839;DHT22;1427;48.510;9.060;2023-05-07T13:16:57;18.20;99.90
2839;DHT22;1427;48.510;9.060;2023-05-07T13:19:25;18.20;99.90
2839;DHT22;1427;48.510;9.060;2023-05-07T13:21:56;18.10;99.90
2839;DHT22;1427;48.510;9.060;2023-05-07T13:24:24;18.10;99.90
2839;DHT22;1427;48.510;9.060;2023-05-07T13:26:52;18.00;99.90
2839;DHT22;1427;48.510;9.060;2023-05-07T13:29:20;17.80;99.90
2839;DHT22;1427;48.510;9.060;2023-05-07T13:31:52;17.70;99.90
2839;DHT22;1427;48.510;9.060;2023-05-07T13:34:21;17.60;99.90
2839;DHT22;1427;48.510;9.060;2023-05-07T13:36:49;17.40;99.90
2839;DHT22;1427;48.510;9.060;2023-05-07T13:39:17;17.40;99.90
2839;DHT22;1427;48.510;9.060;2023-05-07T13:41:45;17.20;99.90
2839;DHT22;1427;48.510;9.060;2023-05-07T13:44:13;17.00;99.90
2839;DHT22;1427;48.510;9.060;2023-05-07T13:46:41;16.90;99.90
2839;DHT22;1427;48.510;9.060;2023-05-07T13:49:09;16.90;99.90
2839;DHT22;1427;48.510;9.060;2023-05-07T13:51:40;16.80;99.90
2839;DHT22;1427;48.510;9.060;2023-05-07T13:54:08;16.70;99.90
2839;DHT22;1427;48.510;9.060;2023-05-07T13:56:36;16.60;99.90
2839;DHT22;1427;48.510;9.060;2023-05-07T13:59:04;16.50;99.90
2839;DHT22;1427;48.510;9.060;2023-05-07T14:01:33;16.40;99.90
2839;DHT22;1427;48.510;9.060;2023-05-07T14:04:01;16.50;99.90
2839;DHT22;1427;48.510;9.060;2023-05-07T14:06:29;16.50;99.90
2839;DHT22;1427;48.510;9.060;2023-05-07T14:08:58;16.70;99.90
2839;DHT22;1427;48.510;9.060;2023-05-07T14:11:26;16.70;99.90
2839;DHT22;1427;48.510;9.060;2023-05-07T14:13:54;16.70;99.90
2839;DHT22;1427;48.510;9.060;2023-05-07T14:16:23;16.70;99.90
2839;DHT22;1427;48.510;9.060;2023-05-07T14:18:51;16.80;99.90
2839;DHT22;1427;48.510;9.060;2023-05-07T14:21:24;16.90;99.90
2839;DHT22;1427;48.510;9.060;2023-05-07T14:23:52;16.80;99.90
2839;DHT22;1427;48.510;9.060;2023-05-07T14:26:21;16.90;99.90
2839;DHT22;1427;48.510;9.060;2023-05-07T14:28:49;16.80;99.90
2839;DHT22;1427;48.510;9.060;2023-05-07T14:31:17;16.90;99.90
2839;DHT22;1427;48.510;9.060;2023-05-07T14:33:45;16.90;99.90
2839;DHT22;1427;48.510;9.060;2023-05-07T14:36:13;16.90;99.90
2839;DHT22;1427;48.510;9.060;2023-05-07T14:38:42;16.90;99.90
2839;DHT22;1427;48.510;9.060;2023-05-07T14:41:10;17.00;99.90
2839;DHT22;1427;48.510;9.060;2023-05-07T14:43:39;17.10;99.90
2839;DHT22;1427;48.510;9.060;2023-05-07T14:46:07;16.80;99.90
2839;DHT22;1427;48.510;9.060;2023-05-07T14:48:35;16.70;99.90
2839;DHT22;1427;48.510;9.060;2023-05-07T14:51:03;16.50;99.90
2839;DHT22;1427;48.510;9.060;2023-05-07T14:53:31;16.40;99.90
2839;DHT22;1427;48.510;9.060;2023-05-07T14:55:59;16.40;99.90
2839;DHT22;1427;48.510;9.060;2023-05-07T14:58:27;16.40;99.90
2839;DHT22;1427;48.510;9.060;2023-05-07T15:00:57;16.60;99.90
2839;DHT22;1427;48.510;9.060;2023-05-07T15:03:25;16.60;99.90
2839;DHT22;1427;48.510;9.060;2023-05-07T15:05:53;16.60;99.90
2839;DHT22;1427;48.510;9.060;2023-05-07T15:08:21;16.70;99.90
2839;DHT22;1427;48.510;9.060;2023-05-07T15:10:49;16.70;99.90
2839;DHT22;1427;48.510;9.060;2023-05-07T15:13:17;16.80;99.90
2839;DHT22;1427;48.510;9.060;2023-05-07T15:15:45;16.70;99.90
2839;DHT22;1427;48.510;9.060;2023-05-07T15:18:15;16.80;99.90
2839;DHT22;1427;48.510;9.060;2023-05-07T15:20:43;16.80;99.90
2839;DHT22;1427;48.510;9.060;2023-05-07T15:23:11;16.60;99.90
2839;DHT22;1427;48.510;9.060;2023-05-07T15:25:40;16.60;99.90
2839;DHT22;1427;48.510;9.060;2023-05-07T15:28:09;16.70;99.90
2839;DHT22;1427;48.510;9.060;2023-05-07T15:30:37;17.00;99.90
2839;DHT22;1427;48.510;9.060;2023-05-07T15:33:05;17.20;99.90
2839;DHT22;1427;48.510;9.060;2023-05-07T15:35:34;17.20;99.90
2839;DHT22;1427;48.510;9.060;2023-05-07T15:38:02;17.10;99.90
2839;DHT22;1427;48.510;9.060;2023-05-07T15:40:30;17.20;99.90
2839;DHT22;1427;48.510;9.060;2023-05-07T15:42:59;17.40;99.90
2839;DHT22;1427;48.510;9.060;2023-05-07T15:45:27;17.50;99.90
2839;DHT22;1427;48.510;9.060;2023-05-07T15:47:55;17.60;99.90
2839;DHT22;1427;48.510;9.060;2023-05-07T15:50:23;17.70;99.90
2839;DHT22;1427;48.510;9.060;2023-05-07T15:52:53;17.50;99.90
2839;DHT22;1427;48.510;9.060;2023-05-07T15:55:21;17.50;99.90
2839;DHT22;1427;48.510;9.060;2023-05-07T15:57:49;17.50;99.90
2839;DHT22;1427;48.510;9.060;2023-05-07T16:00:18;17.40;99.90
2839;DHT22;1427;48.510;9.060;2023-05-07T16:02:46;17.40;99.90
2839;DHT22;1427;48.510;9.060;2023-05-07T16:05:14;17.40;99.90
2839;DHT22;1427;48.510;9.060;2023-05-07T16:07:42;17.40;99.90
2839;DHT22;1427;48.510;9.060;2023-05-07T16:10:12;17.50;99.90
2839;DHT22;1427;48.510;9.060;2023-05-07T16:12:40;17.40;99.90
2839;DHT22;1427;48.510;9.060;2023-05-07T16:15:09;17.40;99.90
2839;DHT22;1427;48.510;9.060;2023-05-07T16:17:37;17.40;99.90
2839;DHT22;1427;48.510;9.060;2023-05-07T16:20:06;17.40;99.90